George Washington — WCP2897 — position and weather

sailwx.info

Track history (hours):
 
Tides and Currents Weather Stations Pressure Air Temp Water Temp Dewpoint Dewpoint Depression Visibility Wind Speed Wind Dir Waves Ship Positions

George Washington

Owner: PORT IMPERIAL FERRY CORP, WEEHAWKEN, NJ. More information available from US FCC via Universal Licensing System and Coast Guard Vessel Documentation Center.

Last reported at 2017-Nov-29 11:00 UTC. Time now 2017-Dec-12 12:27 UTC.
Position N 40°44' W 074°02'.
Warning: this ship's position is 13 days out of date.

Date/timePositionNaut miles runAvg speedWind from/ knotsBaromVisibWave heightAir tempDewpointWater temp
2017-Nov-29 11:00N 40°44' W 074°02'0 0.0
2017-Nov-29 10:31N 40°44' W 074°02'0 0.0
2017-Nov-29 00:05N 40°44' W 074°02'0 0.2
2017-Nov-29 00:00N 40°44' W 074°02'1 2.5
2017-Nov-28 23:30N 40°43' W 074°01'1 2.1
2017-Nov-28 23:00N 40°42' W 074°00'2 4.3
2017-Nov-28 22:30N 40°44' W 074°02'2 3.1
2017-Nov-28 22:00N 40°43' W 074°01'1 1.8
2017-Nov-28 21:30N 40°42' W 074°00'2 4.3
2017-Nov-28 21:00N 40°44' W 074°02'1 2.2
2017-Nov-28 20:30N 40°43' W 074°01'1 2.1
2017-Nov-28 20:00N 40°44' W 074°02'0 0.0
2017-Nov-28 14:39N 40°44' W 074°02'1 4.1
2017-Nov-28 14:30N 40°44' W 074°02'1 1.1
2017-Nov-28 14:00N 40°44' W 074°02'2 4.2
2017-Nov-28 13:30N 40°42' W 074°00'1 2.4
2017-Nov-28 13:00N 40°43' W 074°02'1 2.6
2017-Nov-28 12:30N 40°44' W 074°02'2 4.3
2017-Nov-28 12:00N 40°42' W 074°00'1 2.0
2017-Nov-28 11:30N 40°43' W 074°01'1 2.8
2017-Nov-28 11:00N 40°44' W 074°02'0 0.0
2017-Nov-28 10:30N 40°44' W 074°02'0 0.0
2017-Nov-28 00:05N 40°44' W 074°02'0 0.5
2017-Nov-28 00:00N 40°44' W 074°02'1 2.9
2017-Nov-27 23:30N 40°43' W 074°01'1 1.9
2017-Nov-27 23:00N 40°42' W 074°00'2 4.3
2017-Nov-27 22:30N 40°44' W 074°02'2 3.6
2017-Nov-27 22:00N 40°42' W 074°01'1 1.6
2017-Nov-27 21:30N 40°42' W 074°00'2 4.4
2017-Nov-27 21:00N 40°44' W 074°02'1 2.3
2017-Nov-27 20:30N 40°43' W 074°01'1 2.2
2017-Nov-27 20:00N 40°44' W 074°02'0 0.0
2017-Nov-27 15:35N 40°44' W 074°02'0 0.0
2017-Nov-27 15:30N 40°44' W 074°02'2 4.6
2017-Nov-27 15:00N 40°46' W 074°01'3 5.2
2017-Nov-27 14:30N 40°44' W 074°01'0 0.7
2017-Nov-27 14:00N 40°44' W 074°02'2 4.1
2017-Nov-27 13:30N 40°42' W 074°00'1 2.1
2017-Nov-27 13:00N 40°43' W 074°02'2 3.1
2017-Nov-27 12:30N 40°44' W 074°02'2 4.2
2017-Nov-27 12:00N 40°42' W 074°00'1 1.7
2017-Nov-27 11:30N 40°42' W 074°01'2 3.3
2017-Nov-27 11:00N 40°44' W 074°02'0 0.0
2017-Nov-27 10:30N 40°44' W 074°02'  
2017-Nov-24 23:03N 40°44' W 074°02'0 0.7
2017-Nov-24 23:00N 40°44' W 074°02'1 2.4
2017-Nov-24 22:30N 40°43' W 074°01'1 2.5
2017-Nov-24 22:00N 40°44' W 074°02'1 2.4
2017-Nov-24 21:30N 40°43' W 074°01'1 2.4
2017-Nov-24 21:00N 40°44' W 074°02'1 2.5
2017-Nov-24 20:30N 40°43' W 074°01'1 2.5
2017-Nov-24 20:00N 40°44' W 074°02'1 2.5
2017-Nov-24 19:30N 40°43' W 074°01'1 2.5
2017-Nov-24 19:00N 40°44' W 074°02'1 2.5
2017-Nov-24 18:30N 40°43' W 074°01'1 2.5
2017-Nov-24 18:01N 40°44' W 074°02'0 0.1
2017-Nov-24 17:31N 40°44' W 074°02'0 0.0
2017-Nov-24 17:00N 40°44' W 074°02'0 0.0
2017-Nov-24 16:31N 40°44' W 074°02'0 0.0
2017-Nov-24 16:01N 40°44' W 074°02'0 0.0
2017-Nov-24 15:30N 40°44' W 074°02'0 0.0
2017-Nov-24 15:01N 40°44' W 074°02'1 2.5
2017-Nov-24 14:31N 40°43' W 074°01'1 2.4
2017-Nov-24 14:00N 40°44' W 074°02'1 2.4
2017-Nov-24 13:31N 40°43' W 074°01'1 2.5
2017-Nov-24 13:00N 40°44' W 074°02'1 2.5
2017-Nov-24 12:30N 40°43' W 074°01'1 2.5
2017-Nov-24 12:00N 40°44' W 074°02'0 0.0
2017-Nov-24 11:30N 40°44' W 074°02'0 0.1
2017-Nov-24 11:00N 40°44' W 074°02'0 0.0
2017-Nov-24 10:30N 40°44' W 074°02'0 0.0
2017-Nov-23 00:04N 40°44' W 074°02'0 0.6
2017-Nov-23 00:01N 40°44' W 074°02'2 3.1
2017-Nov-22 23:31N 40°43' W 074°01'1 1.8
2017-Nov-22 23:00N 40°42' W 074°00'2 4.1
2017-Nov-22 22:30N 40°44' W 074°01'2 4.2
2017-Nov-22 22:01N 40°42' W 074°01'1 1.3
2017-Nov-22 21:30N 40°42' W 074°00'2 4.5
2017-Nov-22 21:00N 40°44' W 074°02'2 3.3
2017-Nov-22 20:30N 40°42' W 074°01'2 3.2
2017-Nov-22 20:00N 40°44' W 074°02'  
Track history (hours):
 
Tides and Currents Weather Stations Pressure Air Temp Water Temp Dewpoint Dewpoint Depression Visibility Wind Speed Wind Dir Waves Ship Positions

George Washington

Owner: PORT IMPERIAL FERRY CORP, WEEHAWKEN, NJ. More information available from US FCC via Universal Licensing System and Coast Guard Vessel Documentation Center.

Last reported at 2017-Nov-29 11:00 UTC. Time now 2017-Dec-12 12:27 UTC.
Position N 40°44' W 074°02'.
Warning: this ship's position is 13 days out of date.

Date/timePositionNaut miles runAvg speedWind from/ knotsBaromVisibWave heightAir tempDewpointWater temp
2017-Nov-29 11:00N 40°44' W 074°02'0 0.0
2017-Nov-29 10:31N 40°44' W 074°02'0 0.0
2017-Nov-29 00:05N 40°44' W 074°02'0 0.2
2017-Nov-29 00:00N 40°44' W 074°02'1 2.5
2017-Nov-28 23:30N 40°43' W 074°01'1 2.1
2017-Nov-28 23:00N 40°42' W 074°00'2 4.3
2017-Nov-28 22:30N 40°44' W 074°02'2 3.1
2017-Nov-28 22:00N 40°43' W 074°01'1 1.8
2017-Nov-28 21:30N 40°42' W 074°00'2 4.3
2017-Nov-28 21:00N 40°44' W 074°02'1 2.2
2017-Nov-28 20:30N 40°43' W 074°01'1 2.1
2017-Nov-28 20:00N 40°44' W 074°02'0 0.0
2017-Nov-28 14:39N 40°44' W 074°02'1 4.1
2017-Nov-28 14:30N 40°44' W 074°02'1 1.1
2017-Nov-28 14:00N 40°44' W 074°02'2 4.2
2017-Nov-28 13:30N 40°42' W 074°00'1 2.4
2017-Nov-28 13:00N 40°43' W 074°02'1 2.6
2017-Nov-28 12:30N 40°44' W 074°02'2 4.3
2017-Nov-28 12:00N 40°42' W 074°00'1 2.0
2017-Nov-28 11:30N 40°43' W 074°01'1 2.8
2017-Nov-28 11:00N 40°44' W 074°02'0 0.0
2017-Nov-28 10:30N 40°44' W 074°02'0 0.0
2017-Nov-28 00:05N 40°44' W 074°02'0 0.5
2017-Nov-28 00:00N 40°44' W 074°02'1 2.9
2017-Nov-27 23:30N 40°43' W 074°01'1 1.9
2017-Nov-27 23:00N 40°42' W 074°00'2 4.3
2017-Nov-27 22:30N 40°44' W 074°02'2 3.6
2017-Nov-27 22:00N 40°42' W 074°01'1 1.6
2017-Nov-27 21:30N 40°42' W 074°00'2 4.4
2017-Nov-27 21:00N 40°44' W 074°02'1 2.3
2017-Nov-27 20:30N 40°43' W 074°01'1 2.2
2017-Nov-27 20:00N 40°44' W 074°02'0 0.0
2017-Nov-27 15:35N 40°44' W 074°02'0 0.0
2017-Nov-27 15:30N 40°44' W 074°02'2 4.6
2017-Nov-27 15:00N 40°46' W 074°01'3 5.2
2017-Nov-27 14:30N 40°44' W 074°01'0 0.7
2017-Nov-27 14:00N 40°44' W 074°02'2 4.1
2017-Nov-27 13:30N 40°42' W 074°00'1 2.1
2017-Nov-27 13:00N 40°43' W 074°02'2 3.1
2017-Nov-27 12:30N 40°44' W 074°02'2 4.2
2017-Nov-27 12:00N 40°42' W 074°00'1 1.7
2017-Nov-27 11:30N 40°42' W 074°01'2 3.3
2017-Nov-27 11:00N 40°44' W 074°02'0 0.0
2017-Nov-27 10:30N 40°44' W 074°02'  
2017-Nov-24 23:03N 40°44' W 074°02'0 0.7
2017-Nov-24 23:00N 40°44' W 074°02'1 2.4
2017-Nov-24 22:30N 40°43' W 074°01'1 2.5
2017-Nov-24 22:00N 40°44' W 074°02'1 2.4
2017-Nov-24 21:30N 40°43' W 074°01'1 2.4
2017-Nov-24 21:00N 40°44' W 074°02'1 2.5
2017-Nov-24 20:30N 40°43' W 074°01'1 2.5
2017-Nov-24 20:00N 40°44' W 074°02'1 2.5
2017-Nov-24 19:30N 40°43' W 074°01'1 2.5
2017-Nov-24 19:00N 40°44' W 074°02'1 2.5
2017-Nov-24 18:30N 40°43' W 074°01'1 2.5
2017-Nov-24 18:01N 40°44' W 074°02'0 0.1
2017-Nov-24 17:31N 40°44' W 074°02'0 0.0
2017-Nov-24 17:00N 40°44' W 074°02'0 0.0
2017-Nov-24 16:31N 40°44' W 074°02'0 0.0
2017-Nov-24 16:01N 40°44' W 074°02'0 0.0
2017-Nov-24 15:30N 40°44' W 074°02'0 0.0
2017-Nov-24 15:01N 40°44' W 074°02'1 2.5
2017-Nov-24 14:31N 40°43' W 074°01'1 2.4
2017-Nov-24 14:00N 40°44' W 074°02'1 2.4
2017-Nov-24 13:31N 40°43' W 074°01'1 2.5
2017-Nov-24 13:00N 40°44' W 074°02'1 2.5
2017-Nov-24 12:30N 40°43' W 074°01'1 2.5
2017-Nov-24 12:00N 40°44' W 074°02'0 0.0
2017-Nov-24 11:30N 40°44' W 074°02'0 0.1
2017-Nov-24 11:00N 40°44' W 074°02'0 0.0
2017-Nov-24 10:30N 40°44' W 074°02'0 0.0
2017-Nov-23 00:04N 40°44' W 074°02'0 0.6
2017-Nov-23 00:01N 40°44' W 074°02'2 3.1
2017-Nov-22 23:31N 40°43' W 074°01'1 1.8
2017-Nov-22 23:00N 40°42' W 074°00'2 4.1
2017-Nov-22 22:30N 40°44' W 074°01'2 4.2
2017-Nov-22 22:01N 40°42' W 074°01'1 1.3
2017-Nov-22 21:30N 40°42' W 074°00'2 4.5
2017-Nov-22 21:00N 40°44' W 074°02'2 3.3
2017-Nov-22 20:30N 40°42' W 074°01'2 3.2
2017-Nov-22 20:00N 40°44' W 074°02'  

Dump ship's entire track history